Time;durP1;ratioP1;P1;durP2;ratioP2;P2;SDS_P1;SDS_P2;PMS_P1;PMS_P2;Temp;Humidity;BMP_temperature;BMP_pressure;BME280_temperature;BME280_humidity;BME280_pressure;Samples;Min_cycle;Max_cycle;Signal;HPM_P1;HPM_P2
2023/06/30 00:02:05;;;;;;;6.00;5.47;;;22.50;1.00;;;;;;5117406;28;20426;-51
2023/06/30 00:04:32;;;;;;;6.60;5.90;;;22.50;1.00;;;;;;5118102;28;20835;-49
2023/06/30 00:07:01;;;;;;;6.63;5.97;;;22.50;1.00;;;;;;5117710;28;20264;-52
2023/06/30 00:09:27;;;;;;;7.90;5.40;;;22.50;1.00;;;;;;5117203;28;20827;-53
2023/06/30 00:11:54;;;;;;;6.00;5.50;;;22.50;1.00;;;;;;5116527;28;20424;-52
2023/06/30 00:14:20;;;;;;;6.10;5.50;;;22.50;1.00;;;;;;5099082;28;20200;-51
2023/06/30 00:16:47;;;;;;;7.30;6.07;;;22.50;1.00;;;;;;5117046;28;20422;-54
2023/06/30 00:19:13;;;;;;;5.63;5.13;;;22.50;1.00;;;;;;5118047;28;20421;-50
2023/06/30 00:21:42;;;;;;;6.40;5.90;;;22.50;1.00;;;;;;5117997;28;20414;-51
2023/06/30 00:24:12;;;;;;;6.77;6.00;;;22.50;1.00;;;;;;5117797;28;20179;-49
2023/06/30 00:26:38;;;;;;;6.37;5.73;;;22.50;1.00;;;;;;5117727;28;20457;-50
2023/06/30 00:29:04;;;;;;;6.60;6.10;;;22.50;1.00;;;;;;5118083;28;20685;-53
2023/06/30 00:31:30;;;;;;;6.63;6.13;;;22.50;1.00;;;;;;5115941;28;20477;-50
2023/06/30 00:33:55;;;;;;;6.87;6.27;;;22.40;1.00;;;;;;5116548;28;20168;-53
2023/06/30 00:36:21;;;;;;;6.70;6.10;;;22.40;1.00;;;;;;5116283;28;20233;-53
2023/06/30 00:38:47;;;;;;;6.03;5.47;;;22.40;1.00;;;;;;5115534;28;20580;-49
2023/06/30 00:41:12;;;;;;;6.10;5.57;;;22.30;1.00;;;;;;5098793;28;20454;-51
2023/06/30 00:43:41;;;;;;;7.00;6.30;;;22.20;1.00;;;;;;5116052;28;20190;-51
2023/06/30 00:46:11;;;;;;;5.90;5.30;;;22.10;1.00;;;;;;5114603;28;20676;-54
2023/06/30 00:48:36;;;;;;;6.60;5.93;;;22.00;1.00;;;;;;5098257;28;20405;-51
2023/06/30 00:51:02;;;;;;;6.37;5.67;;;22.00;1.00;;;;;;5116498;28;20704;-51
2023/06/30 00:53:27;;;;;;;7.30;5.37;;;21.90;1.00;;;;;;5098595;28;20194;-53
2023/06/30 00:55:53;;;;;;;7.93;6.23;;;21.80;1.00;;;;;;5096926;28;20186;-53
2023/06/30 00:58:19;;;;;;;6.00;5.50;;;21.80;1.00;;;;;;5115254;28;20186;-53
2023/06/30 01:00:44;;;;;;;6.83;6.20;;;21.70;1.00;;;;;;5115608;28;20600;-52
2023/06/30 01:03:26;;;;;;;6.87;6.07;;;21.70;1.00;;;;;;5115265;28;20196;-52
2023/06/30 01:06:04;;;;;;;6.37;5.87;;;21.60;1.00;;;;;;5096274;28;20263;-51
2023/06/30 01:08:43;;;;;;;6.23;5.70;;;21.60;1.00;;;;;;5098975;28;20441;-51
2023/06/30 01:11:09;;;;;;;6.50;5.90;;;21.50;1.00;;;;;;5127920;27;20659;-51
2023/06/30 01:13:35;;;;;;;5.97;5.10;;;21.50;1.00;;;;;;5117508;27;20421;-52
2023/06/30 01:16:04;;;;;;;5.80;5.30;;;21.50;1.00;;;;;;5109566;28;20456;-53
2023/06/30 01:18:32;;;;;;;5.80;5.30;;;21.40;1.00;;;;;;5116958;28;20649;-49
2023/06/30 01:20:59;;;;;;;11.27;5.83;;;21.40;1.00;;;;;;5116775;28;20811;-52
2023/06/30 01:23:35;;;;;;;7.97;6.20;;;21.40;1.00;;;;;;5117056;28;20457;-51
2023/06/30 01:26:02;;;;;;;6.10;5.60;;;21.30;1.00;;;;;;5098464;28;20473;-49
2023/06/30 01:28:28;;;;;;;6.87;6.13;;;21.20;1.00;;;;;;5099125;28;20866;-50
2023/06/30 01:30:57;;;;;;;6.10;5.50;;;21.10;1.00;;;;;;5099162;28;20843;-49
2023/06/30 01:33:23;;;;;;;6.73;6.13;;;21.00;1.00;;;;;;5116397;28;20426;-52
2023/06/30 01:35:49;;;;;;;6.37;5.77;;;21.00;1.00;;;;;;5116831;28;20436;-52
2023/06/30 01:38:15;;;;;;;5.70;5.10;;;21.00;3.60;;;;;;5116711;28;20425;-51
2023/06/30 01:40:40;;;;;;;6.43;5.83;;;21.00;6.40;;;;;;5116409;28;20647;-51
2023/06/30 01:43:06;;;;;;;6.33;5.73;;;21.00;12.40;;;;;;5115883;28;20470;-50
2023/06/30 01:45:32;;;;;;;7.50;5.70;;;21.00;15.00;;;;;;5098272;28;20167;-50
2023/06/30 01:47:58;;;;;;;6.77;6.07;;;21.00;13.20;;;;;;5116355;28;20290;-51
2023/06/30 01:50:29;;;;;;;6.53;5.50;;;21.00;10.80;;;;;;5097834;28;20460;-50
2023/06/30 01:52:56;;;;;;;6.93;5.63;;;21.00;13.40;;;;;;5135788;27;20541;-51
2023/06/30 01:55:22;;;;;;;5.57;5.17;;;21.00;13.80;;;;;;5136845;27;20424;-49
2023/06/30 01:57:47;;;;;;;6.47;5.97;;;21.00;17.30;;;;;;5118114;28;20501;-52
2023/06/30 02:00:13;;;;;;;6.70;6.10;;;21.00;21.10;;;;;;5134463;28;20183;-53
2023/06/30 02:02:40;;;;;;;6.77;6.17;;;21.00;28.60;;;;;;5134219;28;20320;-52
2023/06/30 02:05:06;;;;;;;6.97;6.27;;;21.00;38.10;;;;;;5134500;28;20432;-50
2023/06/30 02:07:31;;;;;;;6.33;5.73;;;21.00;46.70;;;;;;5135277;28;20471;-53
2023/06/30 02:09:57;;;;;;;6.00;5.50;;;21.00;63.40;;;;;;5135722;28;20409;-50
2023/06/30 02:12:23;;;;;;;6.47;5.87;;;20.90;79.60;;;;;;5136025;28;20163;-51
2023/06/30 02:14:48;;;;;;;6.43;5.83;;;20.90;84.90;;;;;;5136437;28;20220;-49
2023/06/30 02:17:14;;;;;;;6.73;6.13;;;20.90;98.20;;;;;;5136654;28;20457;-51
2023/06/30 02:19:40;;;;;;;6.83;5.93;;;20.90;99.90;;;;;;5137009;28;20179;-50
2023/06/30 02:22:06;;;;;;;7.00;6.40;;;20.80;99.90;;;;;;5137261;28;20191;-52
2023/06/30 02:24:31;;;;;;;6.57;6.00;;;20.70;99.90;;;;;;5136400;28;20163;-49
2023/06/30 02:26:57;;;;;;;7.10;6.50;;;20.70;99.90;;;;;;5133956;28;20460;-53
2023/06/30 02:29:22;;;;;;;7.23;6.60;;;20.60;99.90;;;;;;5136490;28;20227;-54
2023/06/30 02:31:48;;;;;;;7.07;6.37;;;20.60;99.90;;;;;;5133887;28;20249;-49
2023/06/30 02:34:14;;;;;;;6.83;6.33;;;20.50;99.90;;;;;;5133338;28;20175;-49
2023/06/30 02:36:39;;;;;;;6.70;6.20;;;20.50;99.90;;;;;;5133508;28;20180;-53
2023/06/30 02:39:05;;;;;;;6.93;6.40;;;20.40;99.90;;;;;;5133134;28;20223;-50
2023/06/30 02:41:30;;;;;;;7.03;6.40;;;20.40;99.90;;;;;;5129296;28;20255;-49
2023/06/30 02:43:56;;;;;;;7.47;6.73;;;20.30;99.90;;;;;;5111261;28;20244;-50
2023/06/30 02:46:22;;;;;;;7.53;6.83;;;20.30;99.90;;;;;;5113852;28;20207;-51
2023/06/30 02:48:47;;;;;;;6.70;6.10;;;20.40;99.90;;;;;;5114548;28;20175;-50
2023/06/30 02:51:13;;;;;;;8.90;5.80;;;20.40;99.90;;;;;;5113787;28;20205;-51
2023/06/30 02:53:38;;;;;;;7.67;6.90;;;20.40;99.90;;;;;;5114493;28;20168;-52
2023/06/30 02:56:04;;;;;;;6.87;6.20;;;20.50;99.90;;;;;;5123762;27;20176;-49
2023/06/30 02:58:30;;;;;;;6.43;5.93;;;20.50;99.90;;;;;;5134719;27;20221;-50
2023/06/30 03:00:56;;;;;;;7.10;6.40;;;20.60;99.90;;;;;;5135830;27;20175;-53
2023/06/30 03:03:22;;;;;;;7.27;6.70;;;20.60;99.90;;;;;;5127312;27;20433;-50
2023/06/30 03:05:48;;;;;;;7.33;6.73;;;20.60;99.90;;;;;;5109735;27;20448;-49
2023/06/30 03:08:13;;;;;;;9.10;8.17;;;20.70;99.90;;;;;;5133217;27;20688;-51
2023/06/30 03:10:39;;;;;;;8.30;7.50;;;20.70;99.90;;;;;;5130267;27;20183;-50
2023/06/30 03:13:05;;;;;;;7.83;7.07;;;20.60;99.90;;;;;;5118270;27;20175;-51
2023/06/30 03:15:30;;;;;;;7.43;6.73;;;20.60;99.90;;;;;;5120663;27;20188;-49
2023/06/30 03:17:56;;;;;;;7.43;6.77;;;20.50;99.90;;;;;;5115712;28;20232;-51
2023/06/30 03:20:22;;;;;;;7.53;6.83;;;20.50;99.90;;;;;;5116722;28;20244;-50
2023/06/30 03:22:48;;;;;;;6.97;6.47;;;20.50;99.90;;;;;;5116380;28;20256;-50
2023/06/30 03:25:13;;;;;;;6.87;6.17;;;20.50;99.90;;;;;;5115950;28;20428;-53
2023/06/30 03:27:41;;;;;;;7.20;6.60;;;20.50;99.90;;;;;;5114038;28;20379;-53
2023/06/30 03:30:09;;;;;;;7.10;6.50;;;20.50;99.90;;;;;;5114092;28;20202;-53
2023/06/30 03:32:35;;;;;;;7.20;6.50;;;20.50;99.90;;;;;;5114043;28;20835;-49
2023/06/30 03:35:02;;;;;;;7.67;7.07;;;20.50;99.90;;;;;;5116415;28;20430;-49
2023/06/30 03:37:31;;;;;;;7.50;6.90;;;20.60;99.90;;;;;;5117518;28;20229;-54
2023/06/30 03:39:57;;;;;;;7.53;6.93;;;20.60;99.90;;;;;;5117221;28;20469;-50
2023/06/30 03:42:23;;;;;;;7.00;6.50;;;20.60;99.90;;;;;;5115325;28;20873;-53
2023/06/30 03:44:48;;;;;;;8.27;7.60;;;20.60;99.90;;;;;;5116603;28;20172;-51
2023/06/30 03:47:14;;;;;;;9.17;8.40;;;20.60;99.90;;;;;;5115638;28;20455;-50
2023/06/30 03:49:40;;;;;;;7.10;6.50;;;20.70;99.90;;;;;;5123435;27;20345;-52
2023/06/30 03:52:06;;;;;;;7.97;7.27;;;20.60;99.90;;;;;;5135697;27;20182;-54
2023/06/30 03:54:31;;;;;;;7.93;7.20;;;20.60;1.00;;;;;;5116698;27;20186;-50
2023/06/30 03:56:58;;;;;;;7.60;7.00;;;20.50;1.00;;;;;;5101446;27;20458;-54
2023/06/30 03:59:23;;;;;;;8.40;7.80;;;20.40;1.00;;;;;;5136406;27;20171;-52
2023/06/30 04:01:49;;;;;;;8.60;7.90;;;20.40;1.00;;;;;;5136738;27;20711;-57
2023/06/30 04:04:15;;;;;;;8.10;7.30;;;20.30;1.00;;;;;;5117908;27;20200;-56
2023/06/30 04:06:42;;;;;;;8.50;7.80;;;20.30;1.00;;;;;;5135674;27;20752;-57
2023/06/30 04:09:08;;;;;;;7.80;7.20;;;20.40;1.00;;;;;;5138200;27;20232;-58
2023/06/30 04:11:33;;;;;;;7.73;7.00;;;20.40;1.00;;;;;;5138191;27;20420;-57
2023/06/30 04:13:59;;;;;;;8.83;8.03;;;20.50;1.00;;;;;;5137593;27;20493;-55
2023/06/30 04:16:25;;;;;;;8.33;7.60;;;20.60;1.00;;;;;;5137166;27;20568;-55
2023/06/30 04:18:52;;;;;;;8.10;7.30;;;20.70;1.00;;;;;;5136960;27;20179;-56
2023/06/30 04:21:19;;;;;;;8.67;7.83;;;20.70;1.00;;;;;;5136193;27;20186;-56
2023/06/30 04:23:44;;;;;;;8.60;7.80;;;20.80;1.00;;;;;;5117286;27;20424;-55
2023/06/30 04:26:10;;;;;;;8.67;7.77;;;20.80;1.00;;;;;;5135511;27;20894;-58
2023/06/30 04:28:36;;;;;;;8.87;8.17;;;20.90;99.90;;;;;;5134455;27;20166;-56
2023/06/30 04:31:03;;;;;;;8.77;8.07;;;21.00;99.90;;;;;;5133524;27;20929;-57
2023/06/30 04:33:29;;;;;;;9.50;7.50;;;20.90;99.90;;;;;;5129570;27;20190;-59
2023/06/30 04:35:54;;;;;;;8.40;7.60;;;20.90;1.00;;;;;;5114694;27;20955;-57
2023/06/30 04:38:20;;;;;;;8.43;7.70;;;20.80;99.90;;;;;;5110422;27;20560;-57
2023/06/30 04:40:47;;;;;;;9.77;8.80;;;20.70;1.00;;;;;;5120346;27;20215;-56
2023/06/30 04:43:12;;;;;;;8.03;7.20;;;20.70;1.00;;;;;;5128888;27;20229;-56
2023/06/30 04:45:39;;;;;;;9.57;8.67;;;20.60;1.00;;;;;;5130928;27;20428;-58
2023/06/30 04:48:06;;;;;;;8.90;8.20;;;20.50;1.00;;;;;;5117605;27;20214;-58
2023/06/30 04:50:31;;;;;;;9.57;8.67;;;20.40;13.80;;;;;;5132622;27;20440;-57
2023/06/30 04:52:57;;;;;;;9.90;9.00;;;20.30;99.90;;;;;;5138210;27;20416;-56
2023/06/30 04:55:23;;;;;;;9.90;8.97;;;20.30;1.00;;;;;;5122981;27;20542;-59
2023/06/30 04:57:48;;;;;;;10.23;9.37;;;20.30;6.20;;;;;;5113496;28;20172;-58
2023/06/30 05:00:14;;;;;;;9.97;8.97;;;20.20;5.20;;;;;;5114402;28;20180;-57
2023/06/30 05:02:40;;;;;;;9.63;8.93;;;20.20;99.90;;;;;;5113498;28;20183;-56
2023/06/30 05:05:06;;;;;;;11.77;10.67;;;20.20;1.00;;;;;;5114361;28;20429;-56
2023/06/30 05:07:32;;;;;;;11.60;10.40;;;20.20;99.90;;;;;;5113005;27;20207;-59
2023/06/30 05:09:58;;;;;;;12.20;11.10;;;20.20;99.90;;;;;;5122870;27;20428;-58
2023/06/30 05:12:23;;;;;;;11.30;10.30;;;20.10;1.00;;;;;;5132868;27;20546;-58
2023/06/30 05:14:49;;;;;;;11.20;10.13;;;20.00;1.00;;;;;;5116956;27;20440;-58
2023/06/30 05:17:15;;;;;;;10.87;9.90;;;19.90;99.90;;;;;;5114030;28;20805;-56
2023/06/30 05:19:41;;;;;;;12.23;10.67;;;19.80;1.00;;;;;;5115062;27;20587;-57
2023/06/30 05:22:07;;;;;;;10.90;9.90;;;19.70;46.80;;;;;;5124846;27;20210;-57
2023/06/30 05:24:33;;;;;;;11.73;10.73;;;19.60;99.90;;;;;;5121252;27;20512;-59
2023/06/30 05:27:00;;;;;;;10.43;9.50;;;19.60;99.90;;;;;;5128943;27;20214;-59
2023/06/30 05:29:28;;;;;;;12.10;11.00;;;19.60;99.90;;;;;;5119443;27;20432;-58
2023/06/30 05:31:54;;;;;;;10.10;9.30;;;19.60;99.90;;;;;;5094925;28;20911;-58
2023/06/30 05:34:19;;;;;;;10.83;9.83;;;19.70;1.00;;;;;;5118830;27;20502;-59
2023/06/30 05:36:45;;;;;;;10.27;9.27;;;19.70;40.90;;;;;;5134231;27;20232;-57
2023/06/30 05:39:11;;;;;;;12.57;11.50;;;19.70;99.90;;;;;;5133092;27;20468;-58
2023/06/30 05:41:37;;;;;;;12.10;10.83;;;19.80;99.90;;;;;;5131506;27;20235;-58
2023/06/30 05:44:05;;;;;;;10.50;9.40;;;19.70;99.90;;;;;;5131133;27;20440;-58
2023/06/30 05:46:31;;;;;;;11.03;10.13;;;19.70;1.00;;;;;;5131013;27;21131;-58
2023/06/30 05:48:56;;;;;;;11.13;10.07;;;19.70;1.00;;;;;;5132075;27;20512;-58
2023/06/30 05:51:22;;;;;;;10.10;9.17;;;19.70;1.00;;;;;;5129629;27;20175;-57
2023/06/30 05:53:47;;;;;;;10.50;9.60;;;19.60;1.00;;;;;;5092589;28;20175;-57
2023/06/30 05:56:13;;;;;;;12.20;11.03;;;19.70;1.00;;;;;;5127759;27;20190;-56
2023/06/30 05:58:40;;;;;;;10.03;9.20;;;19.70;18.70;;;;;;5129804;28;21057;-55
2023/06/30 06:01:06;;;;;;;12.20;10.90;;;19.80;1.00;;;;;;5129278;28;20171;-55
2023/06/30 06:03:31;;;;;;;11.93;10.60;;;19.80;13.10;;;;;;5132246;28;20436;-56
2023/06/30 06:05:59;;;;;;;12.43;11.17;;;19.90;99.90;;;;;;5131509;28;20200;-53
2023/06/30 06:08:25;;;;;;;11.20;10.20;;;19.90;99.90;;;;;;5130372;28;20171;-55
2023/06/30 06:10:50;;;;;;;11.90;10.90;;;19.90;99.90;;;;;;5130488;28;20412;-53
2023/06/30 06:13:37;;;;;;;11.93;10.83;;;19.90;99.90;;;;;;5130350;28;20571;-55
2023/06/30 06:16:04;;;;;;;13.80;12.50;;;19.90;1.00;;;;;;5130949;28;20258;-56
2023/06/30 06:18:30;;;;;;;12.97;11.77;;;19.90;1.00;;;;;;5132262;28;20564;-55
2023/06/30 06:20:56;;;;;;;12.50;11.30;;;19.90;1.00;;;;;;5121405;28;20438;-55
2023/06/30 06:23:22;;;;;;;11.50;10.50;;;19.90;1.00;;;;;;5111677;28;20812;-56
2023/06/30 06:25:48;;;;;;;11.60;10.50;;;19.90;1.00;;;;;;5109136;28;20413;-55
2023/06/30 06:28:14;;;;;;;10.83;9.83;;;20.10;1.00;;;;;;5112086;28;20751;-54
2023/06/30 06:30:40;;;;;;;12.70;11.50;;;20.30;99.90;;;;;;5116364;28;21014;-55
2023/06/30 06:33:05;;;;;;;13.87;12.57;;;20.50;99.90;;;;;;5116473;28;20175;-55
2023/06/30 06:35:31;;;;;;;14.40;13.10;;;20.70;99.90;;;;;;5116936;28;20172;-56
2023/06/30 06:37:57;;;;;;;12.30;11.27;;;20.70;99.90;;;;;;5118031;28;20180;-54
2023/06/30 06:40:22;;;;;;;12.37;11.27;;;20.50;99.90;;;;;;5116715;28;20906;-53
2023/06/30 06:42:48;;;;;;;13.00;11.80;;;20.50;99.90;;;;;;5116556;28;20267;-56
2023/06/30 06:45:14;;;;;;;14.17;12.77;;;20.50;1.00;;;;;;5116868;28;20183;-55
2023/06/30 06:48:18;;;;;;;13.63;12.33;;;20.50;1.00;;;;;;5116371;28;20599;-52
2023/06/30 06:50:44;;;;;;;13.90;12.50;;;20.50;95.60;;;;;;5115482;28;20263;-54
2023/06/30 06:53:13;;;;;;;13.00;11.80;;;20.40;1.00;;;;;;5116373;28;20544;-56
2023/06/30 06:55:42;;;;;;;14.63;13.10;;;20.40;1.00;;;;;;5115188;28;20602;-55
2023/06/30 06:58:07;;;;;;;13.10;11.80;;;20.40;1.00;;;;;;5114779;28;20413;-54
2023/06/30 07:00:33;;;;;;;12.20;11.20;;;20.30;1.00;;;;;;5115766;28;20425;-53
2023/06/30 07:02:58;;;;;;;14.87;13.43;;;20.40;1.00;;;;;;5114092;28;20685;-52
2023/06/30 07:05:24;;;;;;;13.90;12.63;;;20.40;22.50;;;;;;5115431;28;20204;-54
2023/06/30 07:07:49;;;;;;;15.27;13.60;;;20.40;99.90;;;;;;5113608;28;20200;-54
2023/06/30 07:10:15;;;;;;;16.07;14.37;;;20.40;99.90;;;;;;5113586;28;20171;-55
2023/06/30 07:12:41;;;;;;;17.20;15.13;;;20.30;18.40;;;;;;5114167;28;20270;-55
2023/06/30 07:15:07;;;;;;;17.60;14.60;;;20.20;99.90;;;;;;5114449;28;20180;-54
2023/06/30 07:17:33;;;;;;;15.00;13.40;;;20.10;99.90;;;;;;5114802;28;20198;-54
2023/06/30 07:19:58;;;;;;;16.70;14.90;;;20.00;99.90;;;;;;5116584;28;20818;-55
2023/06/30 07:22:24;;;;;;;17.70;15.07;;;19.90;99.90;;;;;;5116308;28;20430;-53
2023/06/30 07:24:53;;;;;;;21.30;16.43;;;19.60;99.90;;;;;;5115090;28;20418;-53
2023/06/30 07:27:18;;;;;;;21.83;15.57;;;19.40;1.00;;;;;;5095469;28;20214;-53
2023/06/30 07:29:49;;;;;;;21.10;16.53;;;19.30;1.00;;;;;;5116742;28;20422;-53
2023/06/30 07:32:15;;;;;;;20.10;15.37;;;19.30;1.00;;;;;;5114545;28;20179;-55
2023/06/30 07:34:40;;;;;;;19.03;15.97;;;19.20;1.00;;;;;;5115070;28;20512;-56
2023/06/30 07:37:07;;;;;;;17.63;15.10;;;19.30;1.00;;;;;;5114195;28;20180;-56
2023/06/30 07:39:34;;;;;;;19.80;15.43;;;19.30;1.00;;;;;;5116489;28;20509;-55
2023/06/30 07:41:59;;;;;;;20.60;17.10;;;19.40;1.00;;;;;;5115708;28;20962;-52
2023/06/30 07:44:25;;;;;;;19.00;15.90;;;19.40;1.00;;;;;;5114480;28;20442;-55
2023/06/30 07:46:51;;;;;;;20.20;16.13;;;19.50;1.00;;;;;;5098497;28;20208;-55
2023/06/30 07:49:16;;;;;;;18.80;14.97;;;19.60;99.90;;;;;;5117903;28;20258;-56
2023/06/30 07:51:42;;;;;;;19.07;16.07;;;19.60;99.90;;;;;;5116510;28;20172;-53
2023/06/30 07:54:08;;;;;;;19.23;16.03;;;19.70;99.90;;;;;;5116938;28;20171;-56
2023/06/30 07:56:34;;;;;;;21.13;16.30;;;19.70;99.90;;;;;;5097645;28;20520;-53
2023/06/30 07:59:00;;;;;;;21.13;16.83;;;19.70;99.90;;;;;;5114552;28;20310;-56
2023/06/30 08:01:26;;;;;;;17.93;15.03;;;19.60;99.90;;;;;;5114188;28;20505;-55
2023/06/30 08:03:52;;;;;;;16.63;14.37;;;19.50;99.90;;;;;;5114057;28;20183;-56
2023/06/30 08:06:18;;;;;;;19.30;15.47;;;19.50;99.90;;;;;;5113803;28;20770;-55
2023/06/30 08:08:43;;;;;;;20.13;16.37;;;19.40;1.00;;;;;;5113917;28;20283;-52
2023/06/30 08:11:09;;;;;;;24.20;16.50;;;19.30;1.00;;;;;;5078272;28;20202;-55
2023/06/30 08:13:35;;;;;;;22.37;17.07;;;19.20;1.00;;;;;;5096191;28;20185;-54
2023/06/30 08:16:01;;;;;;;19.77;16.00;;;19.10;87.00;;;;;;5115855;28;20168;-56
2023/06/30 08:18:28;;;;;;;19.97;16.43;;;19.00;99.90;;;;;;5116505;28;20171;-56
2023/06/30 08:20:55;;;;;;;21.37;16.30;;;19.00;99.90;;;;;;5115793;28;20417;-56
2023/06/30 08:23:21;;;;;;;20.53;17.70;;;19.10;99.90;;;;;;5117539;28;20862;-56
2023/06/30 08:25:47;;;;;;;20.37;17.77;;;19.20;99.90;;;;;;5114028;27;20457;-52
2023/06/30 08:28:13;;;;;;;19.63;16.60;;;19.20;99.90;;;;;;5128974;27;20508;-56
2023/06/30 08:30:39;;;;;;;21.00;16.70;;;19.20;99.90;;;;;;5136719;27;20250;-55
2023/06/30 08:33:05;;;;;;;18.17;15.83;;;19.20;99.90;;;;;;5135694;27;20232;-55
2023/06/30 08:35:30;;;;;;;19.40;16.63;;;19.20;99.90;;;;;;5134506;27;20420;-55
2023/06/30 08:37:56;;;;;;;17.80;16.00;;;19.30;99.90;;;;;;5133042;27;20186;-54
2023/06/30 08:40:26;;;;;;;20.17;16.00;;;19.50;99.90;;;;;;5133738;27;20478;-55
2023/06/30 08:42:53;;;;;;;17.10;15.40;;;19.60;99.90;;;;;;5135943;27;20192;-54
2023/06/30 08:45:18;;;;;;;18.70;16.33;;;19.80;27.90;;;;;;5100368;27;20497;-54
2023/06/30 08:47:44;;;;;;;17.90;15.70;;;19.90;4.80;;;;;;5116877;27;20760;-54
2023/06/30 08:50:10;;;;;;;18.70;16.80;;;19.90;1.00;;;;;;5115923;27;20687;-57
2023/06/30 08:52:36;;;;;;;17.90;16.07;;;20.00;1.00;;;;;;5115205;27;20170;-55
2023/06/30 08:55:02;;;;;;;17.40;15.70;;;20.00;1.00;;;;;;5133984;27;20240;-55
2023/06/30 08:57:31;;;;;;;17.60;15.77;;;20.00;1.00;;;;;;5134529;27;20189;-55
2023/06/30 08:59:57;;;;;;;16.37;14.63;;;20.00;1.00;;;;;;5116437;27;20519;-55
2023/06/30 09:02:23;;;;;;;17.13;15.30;;;20.00;14.00;;;;;;5133109;27;20515;-54
2023/06/30 09:04:48;;;;;;;18.77;14.50;;;20.00;1.00;;;;;;5116235;27;20205;-52
2023/06/30 09:07:25;;;;;;;15.33;13.83;;;20.00;1.00;;;;;;5117424;27;20521;-54
2023/06/30 09:09:54;;;;;;;15.87;14.23;;;20.00;1.00;;;;;;5134947;27;20171;-54
2023/06/30 09:12:20;;;;;;;15.80;13.40;;;19.90;1.00;;;;;;5117978;27;20719;-53
2023/06/30 09:14:46;;;;;;;14.53;13.13;;;19.90;1.00;;;;;;5116975;27;20437;-54
2023/06/30 09:17:12;;;;;;;14.63;13.13;;;20.00;1.00;;;;;;5134883;27;20667;-52
2023/06/30 09:19:38;;;;;;;12.17;11.00;;;20.10;1.00;;;;;;5115842;27;20171;-51
2023/06/30 09:22:05;;;;;;;11.43;10.23;;;20.20;1.00;;;;;;5133805;27;20235;-55
2023/06/30 09:24:30;;;;;;;12.37;11.07;;;20.20;1.00;;;;;;5134759;27;20427;-53
2023/06/30 09:26:56;;;;;;;11.47;10.47;;;20.20;1.00;;;;;;5132429;27;20739;-55
2023/06/30 09:29:23;;;;;;;12.13;11.03;;;20.20;1.00;;;;;;5130367;27;20170;-55
2023/06/30 09:31:52;;;;;;;11.73;10.53;;;20.30;1.00;;;;;;5129723;27;20461;-52
2023/06/30 09:34:21;;;;;;;12.20;9.90;;;20.40;1.00;;;;;;5132090;27;20409;-52
2023/06/30 09:36:52;;;;;;;11.40;9.20;;;20.60;1.00;;;;;;5116354;27;20867;-54
2023/06/30 09:39:18;;;;;;;9.80;8.90;;;20.70;99.90;;;;;;5131087;27;20583;-55
2023/06/30 09:41:45;;;;;;;9.57;8.43;;;20.80;99.90;;;;;;5131321;27;20420;-54
2023/06/30 09:44:12;;;;;;;11.10;9.70;;;21.00;99.90;;;;;;5131352;27;20467;-53
2023/06/30 09:46:45;;;;;;;10.10;9.10;;;21.00;1.00;;;;;;5130621;27;20524;-52
2023/06/30 09:49:23;;;;;;;10.57;8.90;;;21.10;1.00;;;;;;5133398;27;20416;-53
2023/06/30 09:51:48;;;;;;;10.43;9.20;;;21.30;1.00;;;;;;5133067;27;20424;-55
2023/06/30 09:54:18;;;;;;;10.17;9.10;;;21.30;99.90;;;;;;5133370;27;21038;-55
2023/06/30 09:56:45;;;;;;;9.77;8.87;;;21.40;99.90;;;;;;5114858;27;20171;-54
2023/06/30 09:59:11;;;;;;;10.73;9.70;;;21.40;99.90;;;;;;5132546;27;20447;-54
2023/06/30 10:01:37;;;;;;;10.83;9.73;;;21.50;99.90;;;;;;5132648;28;20833;-54
2023/06/30 10:04:03;;;;;;;12.47;11.17;;;21.50;99.90;;;;;;5097146;28;20413;-54
2023/06/30 10:06:28;;;;;;;11.83;10.70;;;21.50;99.90;;;;;;5133350;28;20232;-54
2023/06/30 10:08:57;;;;;;;13.33;12.00;;;21.50;99.90;;;;;;5115246;28;20201;-57
2023/06/30 10:11:23;;;;;;;12.77;11.47;;;21.40;99.90;;;;;;5130763;28;20175;-56
2023/06/30 10:13:54;;;;;;;12.63;11.33;;;21.30;1.00;;;;;;5132786;28;20419;-56
2023/06/30 10:16:21;;;;;;;12.37;11.03;;;21.10;1.00;;;;;;5134356;28;20804;-55
2023/06/30 10:18:47;;;;;;;13.67;12.33;;;21.00;1.00;;;;;;5131391;28;20498;-56
2023/06/30 10:21:13;;;;;;;15.10;12.80;;;21.00;17.10;;;;;;5115169;28;20451;-54
2023/06/30 10:23:39;;;;;;;13.97;12.57;;;20.90;68.80;;;;;;5111653;28;20448;-56
2023/06/30 10:26:09;;;;;;;13.40;12.10;;;21.00;72.30;;;;;;5130100;28;20179;-51
2023/06/30 10:28:38;;;;;;;14.70;13.20;;;21.00;1.00;;;;;;5130829;28;20485;-55
2023/06/30 10:31:05;;;;;;;14.50;13.10;;;21.10;1.00;;;;;;5130398;28;20443;-54
2023/06/30 10:33:30;;;;;;;15.10;13.60;;;21.20;1.00;;;;;;5131598;28;20421;-55
2023/06/30 10:35:57;;;;;;;17.00;15.40;;;21.20;1.00;;;;;;5131706;28;20548;-55
2023/06/30 10:38:24;;;;;;;15.07;13.47;;;21.20;1.00;;;;;;5111816;28;20190;-53
2023/06/30 10:40:49;;;;;;;14.83;13.33;;;21.10;1.00;;;;;;5129853;28;20766;-52
2023/06/30 10:43:16;;;;;;;15.27;13.80;;;21.00;1.00;;;;;;5131065;28;20413;-56
2023/06/30 10:46:07;;;;;;;15.93;14.40;;;21.00;1.00;;;;;;5114642;28;20163;-53
2023/06/30 10:48:33;;;;;;;15.13;13.17;;;21.10;1.00;;;;;;5130188;28;20846;-54
2023/06/30 10:50:59;;;;;;;16.53;15.00;;;21.10;14.20;;;;;;5131525;28;20515;-56
2023/06/30 10:53:26;;;;;;;16.40;14.70;;;21.20;1.00;;;;;;5130820;28;20245;-56
2023/06/30 10:55:56;;;;;;;14.90;13.37;;;21.30;1.00;;;;;;5131463;28;20174;-53
2023/06/30 10:58:23;;;;;;;15.33;13.93;;;21.40;1.00;;;;;;5131162;28;20436;-53
2023/06/30 11:01:15;;;;;;;17.60;14.67;;;21.50;1.00;;;;;;5129381;28;20436;-56
2023/06/30 11:03:56;;;;;;;19.60;15.80;;;21.60;99.90;;;;;;5107369;28;20785;-47
2023/06/30 11:06:22;;;;;;;15.97;14.20;;;21.70;93.20;;;;;;5129001;28;20455;-56
2023/06/30 11:09:09;;;;;;;19.93;18.00;;;21.90;1.00;;;;;;5130207;28;20425;-55
2023/06/30 11:11:48;;;;;;;19.17;17.07;;;21.90;1.00;;;;;;5130478;28;20420;-55
2023/06/30 11:14:14;;;;;;;17.63;15.93;;;21.90;1.00;;;;;;5131577;28;20524;-55
2023/06/30 11:17:07;;;;;;;15.67;14.03;;;21.80;1.00;;;;;;5116575;27;20515;-53
2023/06/30 11:19:38;;;;;;;17.03;15.33;;;21.80;96.20;;;;;;5133022;27;20171;-53
2023/06/30 11:22:30;;;;;;;16.40;14.90;;;21.80;1.00;;;;;;5098664;27;20500;-55
2023/06/30 11:24:56;;;;;;;15.73;14.20;;;22.00;1.00;;;;;;5135305;27;20425;-55
2023/06/30 11:27:22;;;;;;;21.20;19.00;;;22.20;99.90;;;;;;5134915;27;20466;-55
2023/06/30 11:29:49;;;;;;;20.90;18.70;;;22.20;99.90;;;;;;5116677;27;20826;-52
2023/06/30 11:32:45;;;;;;;21.53;19.27;;;22.20;1.00;;;;;;5135552;27;20423;-53
2023/06/30 11:35:12;;;;;;;20.80;18.70;;;22.00;1.00;;;;;;5132655;27;20527;-53
2023/06/30 11:37:38;;;;;;;19.27;17.43;;;21.90;99.90;;;;;;5137359;27;20419;-54
2023/06/30 11:40:05;;;;;;;20.43;17.50;;;21.80;99.90;;;;;;5136955;27;20563;-56
2023/06/30 11:42:32;;;;;;;21.77;19.40;;;21.90;99.90;;;;;;5136598;27;20615;-56
2023/06/30 11:44:57;;;;;;;21.90;19.63;;;22.00;99.90;;;;;;5136396;27;20887;-55
2023/06/30 11:47:23;;;;;;;21.00;18.97;;;22.00;99.90;;;;;;5118998;27;20464;-55
2023/06/30 11:49:49;;;;;;;23.90;21.30;;;21.90;99.90;;;;;;5134147;27;20176;-54
2023/06/30 11:52:16;;;;;;;23.30;21.00;;;21.80;39.80;;;;;;5134504;27;20179;-55
2023/06/30 11:54:42;;;;;;;19.60;17.50;;;21.70;99.90;;;;;;5134361;27;20428;-55
2023/06/30 11:57:08;;;;;;;20.90;18.80;;;21.80;99.90;;;;;;5134641;27;20955;-55
2023/06/30 11:59:34;;;;;;;22.03;19.73;;;21.90;99.90;;;;;;5134861;27;20175;-53
2023/06/30 12:02:00;;;;;;;21.40;19.20;;;22.10;1.00;;;;;;5133722;27;20868;-53
2023/06/30 12:04:26;;;;;;;23.20;20.70;;;22.20;99.90;;;;;;5132183;27;20413;-56
2023/06/30 12:06:55;;;;;;;19.90;17.90;;;22.30;99.90;;;;;;5133992;27;20786;-52
2023/06/30 12:09:21;;;;;;;23.23;21.00;;;22.50;1.00;;;;;;5135471;27;20590;-55
2023/06/30 12:11:50;;;;;;;21.20;19.10;;;22.50;99.90;;;;;;5134806;27;20417;-54
2023/06/30 12:14:16;;;;;;;23.23;20.67;;;22.60;66.40;;;;;;5116552;27;20685;-54
2023/06/30 12:16:43;;;;;;;23.77;21.37;;;22.50;1.00;;;;;;5132091;27;20889;-56
2023/06/30 12:19:08;;;;;;;23.60;21.10;;;22.50;1.00;;;;;;5135124;27;20417;-55
2023/06/30 12:21:35;;;;;;;25.43;21.63;;;22.50;1.00;;;;;;5116126;27;20424;-55
2023/06/30 12:24:07;;;;;;;23.20;20.70;;;22.60;1.00;;;;;;5134101;27;20417;-57
2023/06/30 12:26:33;;;;;;;23.50;21.00;;;22.70;1.00;;;;;;5135860;27;20488;-53
2023/06/30 12:29:07;;;;;;;22.90;20.57;;;22.80;1.00;;;;;;5125769;27;20909;-52
2023/06/30 12:31:33;;;;;;;23.10;20.70;;;22.90;1.00;;;;;;5111406;28;20163;-54
2023/06/30 12:33:58;;;;;;;22.70;20.40;;;22.90;1.00;;;;;;5094601;28;20701;-55
2023/06/30 12:36:28;;;;;;;24.50;22.03;;;23.00;1.00;;;;;;5112612;28;20183;-50
2023/06/30 12:38:54;;;;;;;21.40;19.20;;;23.00;1.00;;;;;;5112258;28;20544;-56
2023/06/30 12:41:20;;;;;;;25.30;22.70;;;23.00;1.00;;;;;;5111332;28;20450;-53